sensor_id;sensor_type;location;lat;lon;timestamp;P1;durP1;ratioP1;P2;durP2;ratioP2
29196;SDS011;62796;42.654;23.316;2022-08-11T00:01:37;7.38;;;6.05;;
29196;SDS011;62796;42.654;23.316;2022-08-11T00:04:09;6.45;;;5.85;;
29196;SDS011;62796;42.654;23.316;2022-08-11T00:06:37;6.95;;;5.68;;
29196;SDS011;62796;42.654;23.316;2022-08-11T00:09:04;7.60;;;5.43;;
29196;SDS011;62796;42.654;23.316;2022-08-11T00:11:35;8.40;;;5.47;;
29196;SDS011;62796;42.654;23.316;2022-08-11T00:14:04;6.63;;;5.65;;
29196;SDS011;62796;42.654;23.316;2022-08-11T00:16:39;6.75;;;6.00;;
29196;SDS011;62796;42.654;23.316;2022-08-11T00:19:06;7.50;;;5.45;;
29196;SDS011;62796;42.654;23.316;2022-08-11T00:21:37;6.43;;;5.47;;
29196;SDS011;62796;42.654;23.316;2022-08-11T00:24:05;8.18;;;5.82;;
29196;SDS011;62796;42.654;23.316;2022-08-11T00:26:31;7.03;;;6.07;;
29196;SDS011;62796;42.654;23.316;2022-08-11T00:29:06;6.57;;;5.68;;
29196;SDS011;62796;42.654;23.316;2022-08-11T00:31:33;8.68;;;5.88;;
29196;SDS011;62796;42.654;23.316;2022-08-11T00:34:00;6.93;;;6.22;;
29196;SDS011;62796;42.654;23.316;2022-08-11T00:36:28;6.80;;;6.10;;
29196;SDS011;62796;42.654;23.316;2022-08-11T00:39:03;8.55;;;6.00;;
29196;SDS011;62796;42.654;23.316;2022-08-11T01:17:34;7.63;;;6.60;;
29196;SDS011;62796;42.654;23.316;2022-08-11T01:23:10;10.88;;;6.72;;
29196;SDS011;62796;42.654;23.316;2022-08-11T01:45:37;9.48;;;7.63;;
29196;SDS011;62796;42.654;23.316;2022-08-11T02:04:06;8.18;;;7.35;;
29196;SDS011;62796;42.654;23.316;2022-08-11T02:06:52;8.20;;;6.30;;
29196;SDS011;62796;42.654;23.316;2022-08-11T02:12:00;8.13;;;7.20;;
29196;SDS011;62796;42.654;23.316;2022-08-11T02:17:49;8.95;;;7.20;;
29196;SDS011;62796;42.654;23.316;2022-08-11T02:20:24;8.23;;;6.80;;
29196;SDS011;62796;42.654;23.316;2022-08-11T02:26:17;8.25;;;7.28;;
29196;SDS011;62796;42.654;23.316;2022-08-11T02:31:17;11.10;;;7.35;;
29196;SDS011;62796;42.654;23.316;2022-08-11T02:34:08;8.15;;;7.20;;
29196;SDS011;62796;42.654;23.316;2022-08-11T02:40:07;8.85;;;7.50;;
29196;SDS011;62796;42.654;23.316;2022-08-11T03:10:22;9.57;;;7.70;;
29196;SDS011;62796;42.654;23.316;2022-08-11T03:13:02;9.07;;;7.72;;
29196;SDS011;62796;42.654;23.316;2022-08-11T03:24:59;11.23;;;8.38;;
29196;SDS011;62796;42.654;23.316;2022-08-11T03:27:47;9.90;;;7.38;;
29196;SDS011;62796;42.654;23.316;2022-08-11T03:30:19;11.23;;;8.40;;
29196;SDS011;62796;42.654;23.316;2022-08-11T03:33:07;10.32;;;8.32;;
29196;SDS011;62796;42.654;23.316;2022-08-11T03:36:26;10.43;;;7.97;;
29196;SDS011;62796;42.654;23.316;2022-08-11T03:38:58;9.10;;;8.20;;
29196;SDS011;62796;42.654;23.316;2022-08-11T03:41:33;10.70;;;8.55;;
29196;SDS011;62796;42.654;23.316;2022-08-11T04:09:46;16.55;;;7.93;;
29196;SDS011;62796;42.654;23.316;2022-08-11T04:21:05;12.52;;;7.78;;
29196;SDS011;62796;42.654;23.316;2022-08-11T04:23:41;17.02;;;7.75;;
29196;SDS011;62796;42.654;23.316;2022-08-11T04:27:05;16.27;;;8.35;;
29196;SDS011;62796;42.654;23.316;2022-08-11T04:29:45;10.90;;;8.57;;
29196;SDS011;62796;42.654;23.316;2022-08-11T04:46:20;14.98;;;9.77;;
29196;SDS011;62796;42.654;23.316;2022-08-11T04:53:18;11.10;;;7.90;;
29196;SDS011;62796;42.654;23.316;2022-08-11T05:14:54;15.45;;;9.10;;
29196;SDS011;62796;42.654;23.316;2022-08-11T05:20:57;15.00;;;8.35;;
29196;SDS011;62796;42.654;23.316;2022-08-11T05:23:53;12.30;;;8.25;;
29196;SDS011;62796;42.654;23.316;2022-08-11T05:26:45;13.77;;;8.20;;
29196;SDS011;62796;42.654;23.316;2022-08-11T05:29:37;19.50;;;8.60;;
29196;SDS011;62796;42.654;23.316;2022-08-11T05:32:29;14.30;;;8.60;;
29196;SDS011;62796;42.654;23.316;2022-08-11T05:35:23;10.88;;;7.38;;
29196;SDS011;62796;42.654;23.316;2022-08-11T05:38:17;10.85;;;8.07;;
29196;SDS011;62796;42.654;23.316;2022-08-11T05:41:06;15.48;;;8.95;;
29196;SDS011;62796;42.654;23.316;2022-08-11T05:43:54;19.55;;;8.02;;
29196;SDS011;62796;42.654;23.316;2022-08-11T05:46:41;15.07;;;9.25;;
29196;SDS011;62796;42.654;23.316;2022-08-11T05:49:28;13.98;;;7.57;;
29196;SDS011;62796;42.654;23.316;2022-08-11T05:52:19;11.40;;;8.02;;
29196;SDS011;62796;42.654;23.316;2022-08-11T05:55:07;16.15;;;8.73;;
29196;SDS011;62796;42.654;23.316;2022-08-11T05:57:56;10.73;;;8.48;;
29196;SDS011;62796;42.654;23.316;2022-08-11T06:00:25;13.75;;;8.75;;
29196;SDS011;62796;42.654;23.316;2022-08-11T06:02:56;10.90;;;8.73;;
29196;SDS011;62796;42.654;23.316;2022-08-11T06:05:31;14.43;;;9.15;;
29196;SDS011;62796;42.654;23.316;2022-08-11T06:07:58;18.25;;;9.45;;
29196;SDS011;62796;42.654;23.316;2022-08-11T06:10:43;14.68;;;9.02;;
29196;SDS011;62796;42.654;23.316;2022-08-11T06:13:09;12.82;;;8.85;;
29196;SDS011;62796;42.654;23.316;2022-08-11T06:15:46;20.85;;;9.38;;
29196;SDS011;62796;42.654;23.316;2022-08-11T06:18:13;12.90;;;8.18;;
29196;SDS011;62796;42.654;23.316;2022-08-11T06:20:47;12.68;;;8.82;;
29196;SDS011;62796;42.654;23.316;2022-08-11T06:23:13;15.40;;;8.43;;
29196;SDS011;62796;42.654;23.316;2022-08-11T06:25:42;14.77;;;7.53;;
29196;SDS011;62796;42.654;23.316;2022-08-11T06:28:09;16.40;;;8.85;;
29196;SDS011;62796;42.654;23.316;2022-08-11T06:30:44;13.75;;;8.98;;
29196;SDS011;62796;42.654;23.316;2022-08-11T06:33:15;15.18;;;8.95;;
29196;SDS011;62796;42.654;23.316;2022-08-11T06:36:04;13.18;;;7.55;;
29196;SDS011;62796;42.654;23.316;2022-08-11T06:38:37;10.85;;;7.50;;
29196;SDS011;62796;42.654;23.316;2022-08-11T06:41:23;13.45;;;7.05;;
29196;SDS011;62796;42.654;23.316;2022-08-11T06:46:49;6.35;;;5.45;;
29196;SDS011;62796;42.654;23.316;2022-08-11T06:49:17;11.82;;;5.50;;
29196;SDS011;62796;42.654;23.316;2022-08-11T06:52:04;9.50;;;5.97;;
29196;SDS011;62796;42.654;23.316;2022-08-11T06:54:48;13.07;;;7.15;;
29196;SDS011;62796;42.654;23.316;2022-08-11T06:57:21;8.10;;;5.53;;
29196;SDS011;62796;42.654;23.316;2022-08-11T07:00:05;7.65;;;6.15;;
29196;SDS011;62796;42.654;23.316;2022-08-11T07:13:44;8.85;;;5.13;;
29196;SDS011;62796;42.654;23.316;2022-08-11T07:16:30;6.00;;;4.53;;
29196;SDS011;62796;42.654;23.316;2022-08-11T07:19:00;9.50;;;4.55;;
29196;SDS011;62796;42.654;23.316;2022-08-11T07:21:46;7.97;;;4.88;;
29196;SDS011;62796;42.654;23.316;2022-08-11T07:24:35;7.35;;;4.85;;
29196;SDS011;62796;42.654;23.316;2022-08-11T07:27:44;7.43;;;5.15;;
29196;SDS011;62796;42.654;23.316;2022-08-11T07:30:36;5.45;;;4.93;;
29196;SDS011;62796;42.654;23.316;2022-08-11T07:33:04;5.97;;;5.28;;
29196;SDS011;62796;42.654;23.316;2022-08-11T07:35:44;9.93;;;5.20;;
29196;SDS011;62796;42.654;23.316;2022-08-11T07:38:37;12.13;;;5.50;;
29196;SDS011;62796;42.654;23.316;2022-08-11T07:41:10;8.20;;;5.63;;
29196;SDS011;62796;42.654;23.316;2022-08-11T07:43:38;15.68;;;5.25;;
29196;SDS011;62796;42.654;23.316;2022-08-11T07:46:05;12.35;;;5.75;;
29196;SDS011;62796;42.654;23.316;2022-08-11T07:48:51;8.40;;;4.55;;
29196;SDS011;62796;42.654;23.316;2022-08-11T07:51:36;9.20;;;4.80;;
29196;SDS011;62796;42.654;23.316;2022-08-11T07:54:21;13.55;;;4.88;;
29196;SDS011;62796;42.654;23.316;2022-08-11T07:56:47;7.80;;;5.45;;
29196;SDS011;62796;42.654;23.316;2022-08-11T07:59:13;5.32;;;4.82;;
29196;SDS011;62796;42.654;23.316;2022-08-11T08:02:00;5.05;;;4.10;;
29196;SDS011;62796;42.654;23.316;2022-08-11T08:04:45;10.20;;;4.68;;
29196;SDS011;62796;42.654;23.316;2022-08-11T08:07:30;10.52;;;6.90;;
29196;SDS011;62796;42.654;23.316;2022-08-11T08:12:59;5.15;;;4.45;;
29196;SDS011;62796;42.654;23.316;2022-08-11T08:15:43;11.18;;;5.40;;
29196;SDS011;62796;42.654;23.316;2022-08-11T08:18:28;7.18;;;5.35;;
29196;SDS011;62796;42.654;23.316;2022-08-11T08:20:58;6.32;;;4.50;;
29196;SDS011;62796;42.654;23.316;2022-08-11T08:23:35;6.80;;;4.68;;
29196;SDS011;62796;42.654;23.316;2022-08-11T08:26:06;8.57;;;4.60;;
29196;SDS011;62796;42.654;23.316;2022-08-11T08:28:56;6.57;;;4.25;;
29196;SDS011;62796;42.654;23.316;2022-08-11T08:31:45;6.45;;;4.68;;
29196;SDS011;62796;42.654;23.316;2022-08-11T08:34:15;5.57;;;4.93;;
29196;SDS011;62796;42.654;23.316;2022-08-11T08:36:42;5.47;;;4.20;;
29196;SDS011;62796;42.654;23.316;2022-08-11T08:39:18;10.45;;;5.45;;
29196;SDS011;62796;42.654;23.316;2022-08-11T08:41:45;10.00;;;4.93;;
29196;SDS011;62796;42.654;23.316;2022-08-11T08:44:16;8.90;;;5.43;;
29196;SDS011;62796;42.654;23.316;2022-08-11T08:46:44;10.00;;;4.70;;
29196;SDS011;62796;42.654;23.316;2022-08-11T08:49:13;12.15;;;5.15;;
29196;SDS011;62796;42.654;23.316;2022-08-11T08:51:42;7.60;;;5.07;;
29196;SDS011;62796;42.654;23.316;2022-08-11T08:54:11;6.00;;;5.00;;
29196;SDS011;62796;42.654;23.316;2022-08-11T08:56:40;8.00;;;4.65;;
29196;SDS011;62796;42.654;23.316;2022-08-11T08:59:08;6.30;;;4.50;;
29196;SDS011;62796;42.654;23.316;2022-08-11T09:02:09;5.63;;;4.63;;
29196;SDS011;62796;42.654;23.316;2022-08-11T09:04:30;5.00;;;4.53;;
29196;SDS011;62796;42.654;23.316;2022-08-11T09:07:02;5.60;;;4.57;;
29196;SDS011;62796;42.654;23.316;2022-08-11T09:09:33;5.00;;;4.50;;
29196;SDS011;62796;42.654;23.316;2022-08-11T09:11:59;9.55;;;5.07;;
29196;SDS011;62796;42.654;23.316;2022-08-11T09:14:36;10.13;;;4.85;;
29196;SDS011;62796;42.654;23.316;2022-08-11T09:17:22;6.65;;;4.90;;
29196;SDS011;62796;42.654;23.316;2022-08-11T09:19:50;7.65;;;5.40;;
29196;SDS011;62796;42.654;23.316;2022-08-11T09:22:28;6.22;;;4.57;;
29196;SDS011;62796;42.654;23.316;2022-08-11T09:25:18;7.53;;;5.22;;
29196;SDS011;62796;42.654;23.316;2022-08-11T09:28:03;8.27;;;5.20;;
29196;SDS011;62796;42.654;23.316;2022-08-11T09:30:29;5.90;;;4.60;;
29196;SDS011;62796;42.654;23.316;2022-08-11T09:32:56;5.95;;;4.75;;
29196;SDS011;62796;42.654;23.316;2022-08-11T09:35:27;5.13;;;4.60;;
29196;SDS011;62796;42.654;23.316;2022-08-11T09:37:55;4.88;;;4.20;;
29196;SDS011;62796;42.654;23.316;2022-08-11T09:40:41;5.88;;;3.70;;
29196;SDS011;62796;42.654;23.316;2022-08-11T09:43:09;8.50;;;4.03;;
29196;SDS011;62796;42.654;23.316;2022-08-11T09:45:56;8.18;;;4.50;;
29196;SDS011;62796;42.654;23.316;2022-08-11T09:48:24;6.25;;;4.32;;
29196;SDS011;62796;42.654;23.316;2022-08-11T09:50:54;7.32;;;4.45;;
29196;SDS011;62796;42.654;23.316;2022-08-11T09:53:23;10.02;;;5.32;;
29196;SDS011;62796;42.654;23.316;2022-08-11T09:55:51;19.80;;;13.60;;
29196;SDS011;62796;42.654;23.316;2022-08-11T09:58:17;9.00;;;4.70;;
29196;SDS011;62796;42.654;23.316;2022-08-11T10:00:46;6.13;;;3.92;;
29196;SDS011;62796;42.654;23.316;2022-08-11T10:03:15;4.22;;;3.83;;
29196;SDS011;62796;42.654;23.316;2022-08-11T10:05:58;4.40;;;4.00;;
29196;SDS011;62796;42.654;23.316;2022-08-11T10:08:44;10.75;;;4.60;;
29196;SDS011;62796;42.654;23.316;2022-08-11T10:11:12;6.00;;;4.30;;
29196;SDS011;62796;42.654;23.316;2022-08-11T10:13:42;7.22;;;4.35;;
29196;SDS011;62796;42.654;23.316;2022-08-11T10:16:29;7.07;;;4.80;;
29196;SDS011;62796;42.654;23.316;2022-08-11T10:19:00;5.18;;;4.40;;
29196;SDS011;62796;42.654;23.316;2022-08-11T10:23:53;9.18;;;4.75;;
29196;SDS011;62796;42.654;23.316;2022-08-11T10:26:38;12.55;;;4.93;;
29196;SDS011;62796;42.654;23.316;2022-08-11T10:29:25;7.22;;;4.75;;
29196;SDS011;62796;42.654;23.316;2022-08-11T10:32:14;12.70;;;5.38;;
29196;SDS011;62796;42.654;23.316;2022-08-11T10:35:03;10.30;;;4.97;;
29196;SDS011;62796;42.654;23.316;2022-08-11T10:37:32;4.25;;;3.85;;
29196;SDS011;62796;42.654;23.316;2022-08-11T10:40:01;7.18;;;5.15;;
29196;SDS011;62796;42.654;23.316;2022-08-11T10:42:29;10.50;;;4.65;;
29196;SDS011;62796;42.654;23.316;2022-08-11T10:45:14;7.10;;;4.78;;
29196;SDS011;62796;42.654;23.316;2022-08-11T10:48:00;18.35;;;5.35;;
29196;SDS011;62796;42.654;23.316;2022-08-11T10:50:28;11.13;;;4.68;;
29196;SDS011;62796;42.654;23.316;2022-08-11T10:53:13;7.72;;;5.03;;
29196;SDS011;62796;42.654;23.316;2022-08-11T10:55:58;6.30;;;4.85;;
29196;SDS011;62796;42.654;23.316;2022-08-11T10:58:42;8.70;;;5.00;;
29196;SDS011;62796;42.654;23.316;2022-08-11T11:01:25;12.48;;;5.15;;
29196;SDS011;62796;42.654;23.316;2022-08-11T11:03:55;8.13;;;4.93;;
29196;SDS011;62796;42.654;23.316;2022-08-11T11:09:28;8.93;;;4.88;;
29196;SDS011;62796;42.654;23.316;2022-08-11T11:12:00;4.88;;;3.88;;
29196;SDS011;62796;42.654;23.316;2022-08-11T11:14:49;9.67;;;4.27;;
29196;SDS011;62796;42.654;23.316;2022-08-11T11:17:40;21.63;;;4.82;;
29196;SDS011;62796;42.654;23.316;2022-08-11T11:20:39;5.88;;;3.65;;
29196;SDS011;62796;42.654;23.316;2022-08-11T11:23:12;10.85;;;4.28;;
29196;SDS011;62796;42.654;23.316;2022-08-11T11:29:06;11.70;;;4.10;;
29196;SDS011;62796;42.654;23.316;2022-08-11T11:37:36;18.33;;;4.65;;
29196;SDS011;62796;42.654;23.316;2022-08-11T11:40:07;7.63;;;4.60;;
29196;SDS011;62796;42.654;23.316;2022-08-11T11:42:36;8.13;;;4.95;;
29196;SDS011;62796;42.654;23.316;2022-08-11T11:45:03;8.43;;;4.65;;
29196;SDS011;62796;42.654;23.316;2022-08-11T11:47:30;5.75;;;4.18;;
29196;SDS011;62796;42.654;23.316;2022-08-11T11:49:57;5.22;;;4.07;;
29196;SDS011;62796;42.654;23.316;2022-08-11T11:52:23;7.47;;;4.28;;
29196;SDS011;62796;42.654;23.316;2022-08-11T11:54:53;8.38;;;5.60;;
29196;SDS011;62796;42.654;23.316;2022-08-11T11:57:20;11.48;;;5.03;;
29196;SDS011;62796;42.654;23.316;2022-08-11T12:00:06;22.02;;;5.43;;
29196;SDS011;62796;42.654;23.316;2022-08-11T12:02:54;8.52;;;5.13;;
29196;SDS011;62796;42.654;23.316;2022-08-11T12:05:22;7.18;;;4.20;;
29196;SDS011;62796;42.654;23.316;2022-08-11T12:07:49;6.43;;;4.03;;
29196;SDS011;62796;42.654;23.316;2022-08-11T12:11:00;6.03;;;4.03;;
29196;SDS011;62796;42.654;23.316;2022-08-11T12:13:45;8.68;;;5.25;;
29196;SDS011;62796;42.654;23.316;2022-08-11T12:16:14;7.32;;;4.20;;
29196;SDS011;62796;42.654;23.316;2022-08-11T12:18:41;6.03;;;3.70;;
29196;SDS011;62796;42.654;23.316;2022-08-11T12:21:10;7.45;;;4.50;;
29196;SDS011;62796;42.654;23.316;2022-08-11T12:23:39;9.73;;;4.63;;
29196;SDS011;62796;42.654;23.316;2022-08-11T12:26:25;9.65;;;4.55;;
29196;SDS011;62796;42.654;23.316;2022-08-11T12:29:11;9.10;;;4.90;;
29196;SDS011;62796;42.654;23.316;2022-08-11T12:31:37;13.93;;;5.40;;
29196;SDS011;62796;42.654;23.316;2022-08-11T12:34:08;7.68;;;4.68;;
29196;SDS011;62796;42.654;23.316;2022-08-11T12:37:19;12.05;;;4.82;;
29196;SDS011;62796;42.654;23.316;2022-08-11T12:39:45;9.00;;;4.47;;
29196;SDS011;62796;42.654;23.316;2022-08-11T12:42:32;9.27;;;4.68;;
29196;SDS011;62796;42.654;23.316;2022-08-11T12:45:17;10.63;;;4.50;;
29196;SDS011;62796;42.654;23.316;2022-08-11T12:48:27;14.32;;;4.88;;
29196;SDS011;62796;42.654;23.316;2022-08-11T12:51:06;9.60;;;4.53;;
29196;SDS011;62796;42.654;23.316;2022-08-11T12:53:59;7.88;;;4.28;;
29196;SDS011;62796;42.654;23.316;2022-08-11T12:56:31;13.00;;;4.25;;
29196;SDS011;62796;42.654;23.316;2022-08-11T12:59:25;19.35;;;4.30;;
29196;SDS011;62796;42.654;23.316;2022-08-11T13:02:14;28.67;;;4.93;;
29196;SDS011;62796;42.654;23.316;2022-08-11T13:05:03;11.63;;;4.57;;
29196;SDS011;62796;42.654;23.316;2022-08-11T13:07:30;7.88;;;3.92;;
29196;SDS011;62796;42.654;23.316;2022-08-11T13:09:57;8.68;;;3.72;;
29196;SDS011;62796;42.654;23.316;2022-08-11T13:12:25;8.30;;;4.07;;
29196;SDS011;62796;42.654;23.316;2022-08-11T13:15:11;6.95;;;4.35;;
29196;SDS011;62796;42.654;23.316;2022-08-11T13:17:39;13.50;;;4.43;;
29196;SDS011;62796;42.654;23.316;2022-08-11T13:20:09;11.00;;;4.22;;
29196;SDS011;62796;42.654;23.316;2022-08-11T13:22:37;9.82;;;4.00;;
29196;SDS011;62796;42.654;23.316;2022-08-11T13:25:05;7.45;;;4.25;;
29196;SDS011;62796;42.654;23.316;2022-08-11T13:27:31;9.18;;;4.35;;
29196;SDS011;62796;42.654;23.316;2022-08-11T13:29:57;5.43;;;3.70;;
29196;SDS011;62796;42.654;23.316;2022-08-11T13:32:43;6.10;;;3.67;;
29196;SDS011;62796;42.654;23.316;2022-08-11T13:35:11;3.67;;;3.38;;
29196;SDS011;62796;42.654;23.316;2022-08-11T13:37:39;5.20;;;3.95;;
29196;SDS011;62796;42.654;23.316;2022-08-11T13:40:07;8.80;;;3.72;;
29196;SDS011;62796;42.654;23.316;2022-08-11T13:42:34;4.65;;;3.47;;
29196;SDS011;62796;42.654;23.316;2022-08-11T13:45:01;8.20;;;6.05;;
29196;SDS011;62796;42.654;23.316;2022-08-11T13:47:27;5.88;;;3.67;;
29196;SDS011;62796;42.654;23.316;2022-08-11T13:49:53;5.82;;;3.67;;
29196;SDS011;62796;42.654;23.316;2022-08-11T13:52:20;7.13;;;3.88;;
29196;SDS011;62796;42.654;23.316;2022-08-11T13:54:47;8.43;;;4.28;;
29196;SDS011;62796;42.654;23.316;2022-08-11T13:57:17;6.28;;;3.88;;
29196;SDS011;62796;42.654;23.316;2022-08-11T13:59:44;6.18;;;3.70;;
29196;SDS011;62796;42.654;23.316;2022-08-11T14:02:15;4.63;;;3.00;;
29196;SDS011;62796;42.654;23.316;2022-08-11T14:07:48;4.95;;;3.50;;
29196;SDS011;62796;42.654;23.316;2022-08-11T14:10:16;7.38;;;3.28;;
29196;SDS011;62796;42.654;23.316;2022-08-11T14:12:46;4.82;;;3.30;;
29196;SDS011;62796;42.654;23.316;2022-08-11T14:15:44;4.63;;;3.25;;
29196;SDS011;62796;42.654;23.316;2022-08-11T14:20:41;3.80;;;3.40;;
29196;SDS011;62796;42.654;23.316;2022-08-11T14:23:28;4.40;;;3.25;;
29196;SDS011;62796;42.654;23.316;2022-08-11T14:25:59;4.05;;;3.65;;
29196;SDS011;62796;42.654;23.316;2022-08-11T14:28:43;4.80;;;3.53;;
29196;SDS011;62796;42.654;23.316;2022-08-11T14:31:09;4.55;;;3.35;;
29196;SDS011;62796;42.654;23.316;2022-08-11T14:33:38;5.50;;;3.42;;
29196;SDS011;62796;42.654;23.316;2022-08-11T14:36:05;5.68;;;4.05;;
29196;SDS011;62796;42.654;23.316;2022-08-11T14:38:34;7.32;;;3.85;;
29196;SDS011;62796;42.654;23.316;2022-08-11T14:41:00;5.30;;;3.78;;
29196;SDS011;62796;42.654;23.316;2022-08-11T14:43:45;4.68;;;4.15;;
29196;SDS011;62796;42.654;23.316;2022-08-11T14:46:30;6.30;;;3.90;;
29196;SDS011;62796;42.654;23.316;2022-08-11T14:49:15;5.95;;;4.20;;
29196;SDS011;62796;42.654;23.316;2022-08-11T14:51:42;8.50;;;3.72;;
29196;SDS011;62796;42.654;23.316;2022-08-11T14:54:09;4.60;;;3.38;;
29196;SDS011;62796;42.654;23.316;2022-08-11T14:56:53;6.43;;;3.65;;
29196;SDS011;62796;42.654;23.316;2022-08-11T14:59:20;4.45;;;4.05;;
29196;SDS011;62796;42.654;23.316;2022-08-11T15:01:47;6.82;;;4.68;;
29196;SDS011;62796;42.654;23.316;2022-08-11T15:04:31;5.40;;;3.90;;
29196;SDS011;62796;42.654;23.316;2022-08-11T15:06:58;3.95;;;3.65;;
29196;SDS011;62796;42.654;23.316;2022-08-11T15:09:24;7.25;;;3.90;;
29196;SDS011;62796;42.654;23.316;2022-08-11T15:11:49;5.22;;;3.95;;
29196;SDS011;62796;42.654;23.316;2022-08-11T15:14:34;6.72;;;4.32;;
29196;SDS011;62796;42.654;23.316;2022-08-11T15:17:19;6.95;;;5.95;;
29196;SDS011;62796;42.654;23.316;2022-08-11T15:19:45;4.70;;;4.10;;
29196;SDS011;62796;42.654;23.316;2022-08-11T15:22:32;5.93;;;4.30;;
29196;SDS011;62796;42.654;23.316;2022-08-11T15:25:16;5.38;;;4.15;;
29196;SDS011;62796;42.654;23.316;2022-08-11T15:27:44;4.00;;;3.60;;
29196;SDS011;62796;42.654;23.316;2022-08-11T15:30:30;7.18;;;4.40;;
29196;SDS011;62796;42.654;23.316;2022-08-11T15:33:15;4.95;;;4.13;;
29196;SDS011;62796;42.654;23.316;2022-08-11T15:36:02;6.70;;;4.03;;
29196;SDS011;62796;42.654;23.316;2022-08-11T15:38:52;6.28;;;4.30;;
29196;SDS011;62796;42.654;23.316;2022-08-11T15:41:22;4.20;;;3.80;;
29196;SDS011;62796;42.654;23.316;2022-08-11T15:44:32;6.20;;;4.50;;
29196;SDS011;62796;42.654;23.316;2022-08-11T15:47:21;4.93;;;4.15;;
29196;SDS011;62796;42.654;23.316;2022-08-11T15:49:50;5.05;;;4.40;;
29196;SDS011;62796;42.654;23.316;2022-08-11T15:52:20;4.75;;;3.95;;
29196;SDS011;62796;42.654;23.316;2022-08-11T15:54:49;5.13;;;4.30;;
29196;SDS011;62796;42.654;23.316;2022-08-11T15:57:16;7.90;;;4.20;;
29196;SDS011;62796;42.654;23.316;2022-08-11T16:00:04;7.85;;;4.53;;
29196;SDS011;62796;42.654;23.316;2022-08-11T16:02:50;6.65;;;4.40;;
29196;SDS011;62796;42.654;23.316;2022-08-11T16:05:20;5.15;;;3.97;;
29196;SDS011;62796;42.654;23.316;2022-08-11T16:07:47;4.20;;;3.80;;
29196;SDS011;62796;42.654;23.316;2022-08-11T16:10:16;7.20;;;4.43;;
29196;SDS011;62796;42.654;23.316;2022-08-11T16:12:56;5.20;;;4.15;;
29196;SDS011;62796;42.654;23.316;2022-08-11T16:15:30;8.57;;;5.07;;
29196;SDS011;62796;42.654;23.316;2022-08-11T16:18:20;6.95;;;4.15;;
29196;SDS011;62796;42.654;23.316;2022-08-11T16:20:49;5.03;;;3.80;;
29196;SDS011;62796;42.654;23.316;2022-08-11T16:23:19;5.97;;;4.25;;
29196;SDS011;62796;42.654;23.316;2022-08-11T16:25:50;6.10;;;3.75;;
29196;SDS011;62796;42.654;23.316;2022-08-11T16:28:19;5.97;;;4.13;;
29196;SDS011;62796;42.654;23.316;2022-08-11T16:30:47;4.80;;;3.95;;
29196;SDS011;62796;42.654;23.316;2022-08-11T16:33:13;5.15;;;3.60;;
29196;SDS011;62796;42.654;23.316;2022-08-11T16:35:40;7.55;;;4.00;;
29196;SDS011;62796;42.654;23.316;2022-08-11T16:38:26;5.35;;;4.00;;
29196;SDS011;62796;42.654;23.316;2022-08-11T16:41:14;5.03;;;3.63;;
29196;SDS011;62796;42.654;23.316;2022-08-11T16:44:05;4.72;;;3.97;;
29196;SDS011;62796;42.654;23.316;2022-08-11T16:46:52;5.22;;;3.35;;
29196;SDS011;62796;42.654;23.316;2022-08-11T16:49:26;4.78;;;3.95;;
29196;SDS011;62796;42.654;23.316;2022-08-11T16:51:55;4.63;;;3.78;;
29196;SDS011;62796;42.654;23.316;2022-08-11T16:54:20;4.15;;;3.67;;
29196;SDS011;62796;42.654;23.316;2022-08-11T16:56:48;8.48;;;6.95;;
29196;SDS011;62796;42.654;23.316;2022-08-11T16:59:16;10.00;;;5.95;;
29196;SDS011;62796;42.654;23.316;2022-08-11T17:01:55;5.47;;;4.30;;
29196;SDS011;62796;42.654;23.316;2022-08-11T17:07:20;4.90;;;4.20;;
29196;SDS011;62796;42.654;23.316;2022-08-11T17:10:08;4.53;;;4.00;;
29196;SDS011;62796;42.654;23.316;2022-08-11T17:12:57;7.28;;;3.78;;
29196;SDS011;62796;42.654;23.316;2022-08-11T17:15:39;4.20;;;3.80;;
29196;SDS011;62796;42.654;23.316;2022-08-11T17:18:27;5.22;;;4.32;;
29196;SDS011;62796;42.654;23.316;2022-08-11T17:21:04;5.93;;;3.83;;
29196;SDS011;62796;42.654;23.316;2022-08-11T17:23:32;6.53;;;4.20;;
29196;SDS011;62796;42.654;23.316;2022-08-11T17:26:25;7.25;;;4.30;;
29196;SDS011;62796;42.654;23.316;2022-08-11T17:29:16;7.10;;;4.50;;
29196;SDS011;62796;42.654;23.316;2022-08-11T17:31:45;5.50;;;3.80;;
29196;SDS011;62796;42.654;23.316;2022-08-11T17:34:32;7.90;;;3.95;;
29196;SDS011;62796;42.654;23.316;2022-08-11T17:37:17;6.07;;;4.20;;
29196;SDS011;62796;42.654;23.316;2022-08-11T17:39:45;4.97;;;4.47;;
29196;SDS011;62796;42.654;23.316;2022-08-11T17:42:13;8.93;;;5.28;;
29196;SDS011;62796;42.654;23.316;2022-08-11T17:44:58;9.77;;;5.93;;
29196;SDS011;62796;42.654;23.316;2022-08-11T17:47:44;5.85;;;4.97;;
29196;SDS011;62796;42.654;23.316;2022-08-11T17:50:29;5.38;;;4.10;;
29196;SDS011;62796;42.654;23.316;2022-08-11T17:52:56;21.55;;;15.93;;
29196;SDS011;62796;42.654;23.316;2022-08-11T17:55:41;10.20;;;8.27;;
29196;SDS011;62796;42.654;23.316;2022-08-11T17:58:27;7.68;;;4.70;;
29196;SDS011;62796;42.654;23.316;2022-08-11T18:01:13;6.05;;;4.20;;
29196;SDS011;62796;42.654;23.316;2022-08-11T18:03:41;5.90;;;4.57;;
29196;SDS011;62796;42.654;23.316;2022-08-11T18:06:08;7.07;;;4.38;;
29196;SDS011;62796;42.654;23.316;2022-08-11T18:08:38;4.40;;;3.90;;
29196;SDS011;62796;42.654;23.316;2022-08-11T18:11:28;8.02;;;4.43;;
29196;SDS011;62796;42.654;23.316;2022-08-11T18:14:14;7.25;;;4.15;;
29196;SDS011;62796;42.654;23.316;2022-08-11T18:17:00;5.43;;;3.67;;
29196;SDS011;62796;42.654;23.316;2022-08-11T18:19:44;6.75;;;4.00;;
29196;SDS011;62796;42.654;23.316;2022-08-11T18:25:16;5.07;;;4.00;;
29196;SDS011;62796;42.654;23.316;2022-08-11T18:28:05;4.80;;;3.85;;
29196;SDS011;62796;42.654;23.316;2022-08-11T18:30:52;7.00;;;3.85;;
29196;SDS011;62796;42.654;23.316;2022-08-11T18:33:43;5.53;;;3.60;;
29196;SDS011;62796;42.654;23.316;2022-08-11T18:36:44;5.18;;;3.63;;
29196;SDS011;62796;42.654;23.316;2022-08-11T18:39:35;4.65;;;4.03;;
29196;SDS011;62796;42.654;23.316;2022-08-11T18:42:26;4.55;;;4.13;;
29196;SDS011;62796;42.654;23.316;2022-08-11T18:45:14;6.65;;;4.10;;
29196;SDS011;62796;42.654;23.316;2022-08-11T18:48:01;6.10;;;4.00;;
29196;SDS011;62796;42.654;23.316;2022-08-11T18:50:49;10.63;;;4.43;;
29196;SDS011;62796;42.654;23.316;2022-08-11T18:53:38;7.00;;;4.72;;
29196;SDS011;62796;42.654;23.316;2022-08-11T18:56:24;8.60;;;4.93;;
29196;SDS011;62796;42.654;23.316;2022-08-11T18:59:12;7.88;;;4.43;;
29196;SDS011;62796;42.654;23.316;2022-08-11T19:02:00;7.45;;;4.78;;
29196;SDS011;62796;42.654;23.316;2022-08-11T19:04:45;7.70;;;4.80;;
29196;SDS011;62796;42.654;23.316;2022-08-11T19:07:30;7.25;;;4.78;;
29196;SDS011;62796;42.654;23.316;2022-08-11T19:10:16;5.90;;;4.65;;
29196;SDS011;62796;42.654;23.316;2022-08-11T19:13:03;4.78;;;4.22;;
29196;SDS011;62796;42.654;23.316;2022-08-11T19:15:50;9.23;;;4.68;;
29196;SDS011;62796;42.654;23.316;2022-08-11T19:18:36;5.53;;;4.50;;
29196;SDS011;62796;42.654;23.316;2022-08-11T19:21:22;10.40;;;5.93;;
29196;SDS011;62796;42.654;23.316;2022-08-11T19:24:07;8.48;;;4.60;;
29196;SDS011;62796;42.654;23.316;2022-08-11T19:26:52;4.88;;;3.67;;
29196;SDS011;62796;42.654;23.316;2022-08-11T19:29:37;6.00;;;4.28;;
29196;SDS011;62796;42.654;23.316;2022-08-11T19:32:24;5.55;;;3.88;;
29196;SDS011;62796;42.654;23.316;2022-08-11T19:35:11;4.47;;;3.72;;
29196;SDS011;62796;42.654;23.316;2022-08-11T19:37:57;4.80;;;3.90;;